Time;durP1;ratioP1;P1;durP2;ratioP2;P2;SDS_P1;SDS_P2;PMS_P1;PMS_P2;Temp;Humidity;BMP_temperature;BMP_pressure;BME280_temperature;BME280_humidity;BME280_pressure;Samples;Min_cycle;Max_cycle;Signal;HPM_P1;HPM_P2
2022/10/24 00:01:36;;;;;;;11.57;3.13;;;;;;;;;;10237192;28;20474;-71
2022/10/24 00:06:35;;;;;;;4.25;3.80;;;;;;;;;;10211922;28;20072;-71
2022/10/24 00:11:34;;;;;;;3.85;3.40;;;;;;;;;;10207345;28;20080;-71
2022/10/24 00:16:34;;;;;;;4.07;3.20;;;;;;;;;;10208467;28;20085;-71
2022/10/24 00:21:32;;;;;;;4.30;3.45;;;;;;;;;;10207268;28;20080;-70
2022/10/24 00:26:32;;;;;;;6.20;4.38;;;;;;;;;;10207873;28;20076;-71
2022/10/24 00:31:30;;;;;;;7.35;3.25;;;;;;;;;;10208194;28;20108;-71
2022/10/24 00:36:29;;;;;;;8.70;3.58;;;;;;;;;;10222225;28;20440;-72
2022/10/24 00:41:29;;;;;;;4.35;3.55;;;;;;;;;;10224178;28;20092;-71
2022/10/24 00:46:28;;;;;;;4.55;3.75;;;;;;;;;;10207829;28;20088;-72
2022/10/24 00:51:28;;;;;;;4.18;3.63;;;;;;;;;;10229726;28;20049;-71
2022/10/24 00:56:28;;;;;;;9.63;4.15;;;;;;;;;;10234461;28;20407;-71
2022/10/24 01:01:26;;;;;;;5.72;3.47;;;;;;;;;;10234929;28;20073;-70
2022/10/24 01:06:34;;;;;;;4.78;3.67;;;;;;;;;;10213464;28;20072;-70
2022/10/24 01:11:39;;;;;;;5.93;3.45;;;;;;;;;;10227301;28;20081;-70
2022/10/24 01:16:39;;;;;;;3.88;3.42;;;;;;;;;;10234507;28;20044;-71
2022/10/24 01:21:43;;;;;;;6.80;3.92;;;;;;;;;;10234388;28;20464;-70
2022/10/24 01:27:11;;;;;;;5.45;4.00;;;;;;;;;;10234168;28;20045;-69
2022/10/24 01:32:21;;;;;;;6.88;5.28;;;;;;;;;;10183386;28;20081;-71
2022/10/24 01:37:21;;;;;;;9.00;4.88;;;;;;;;;;10234584;28;20050;-72
2022/10/24 01:42:21;;;;;;;5.00;3.65;;;;;;;;;;10204303;28;20104;-71
2022/10/24 01:47:22;;;;;;;4.25;3.80;;;;;;;;;;10205157;28;20108;-71
2022/10/24 01:52:21;;;;;;;4.97;4.03;;;;;;;;;;10212064;28;20084;-71
2022/10/24 01:57:19;;;;;;;4.80;3.58;;;;;;;;;;10247755;28;20060;-73
2022/10/24 02:02:19;;;;;;;3.88;3.47;;;;;;;;;;10250968;28;20070;-71
2022/10/24 02:07:20;;;;;;;3.72;3.28;;;;;;;;;;10214268;28;20042;-72
2022/10/24 02:12:19;;;;;;;4.05;3.35;;;;;;;;;;10212352;28;20075;-72
2022/10/24 02:17:17;;;;;;;4.10;3.70;;;;;;;;;;10212298;28;20042;-71
2022/10/24 02:22:21;;;;;;;3.88;3.47;;;;;;;;;;10212604;28;20498;-72
2022/10/24 02:27:22;;;;;;;4.03;3.63;;;;;;;;;;10212680;28;20053;-71
2022/10/24 02:32:22;;;;;;;5.80;3.95;;;;;;;;;;10240479;28;20068;-71
2022/10/24 02:37:23;;;;;;;4.25;3.55;;;;;;;;;;10241599;28;20456;-71
2022/10/24 02:42:22;;;;;;;5.63;3.95;;;;;;;;;;10211126;28;20129;-71
2022/10/24 02:47:21;;;;;;;3.90;3.55;;;;;;;;;;10212707;28;20085;-71
2022/10/24 02:52:19;;;;;;;5.22;3.28;;;;;;;;;;10211775;28;20063;-71
2022/10/24 02:57:20;;;;;;;4.50;3.70;;;;;;;;;;10239452;28;20495;-72
2022/10/24 03:02:19;;;;;;;5.55;4.07;;;;;;;;;;10238610;28;20089;-72
2022/10/24 03:07:17;;;;;;;7.63;4.00;;;;;;;;;;10239250;28;20048;-70
2022/10/24 03:12:16;;;;;;;4.13;3.63;;;;;;;;;;10208839;28;20462;-71
2022/10/24 03:17:15;;;;;;;5.13;3.45;;;;;;;;;;10208855;28;20610;-71
2022/10/24 03:22:14;;;;;;;6.28;3.38;;;;;;;;;;10217554;28;20085;-71
2022/10/24 03:27:13;;;;;;;4.95;3.35;;;;;;;;;;10210192;28;20061;-72
2022/10/24 03:32:11;;;;;;;3.42;3.13;;;;;;;;;;10211060;28;20495;-72
2022/10/24 03:37:11;;;;;;;3.95;3.60;;;;;;;;;;10207909;28;20073;-71
2022/10/24 03:42:09;;;;;;;3.92;3.63;;;;;;;;;;10209245;28;20180;-72
2022/10/24 03:47:07;;;;;;;3.75;3.42;;;;;;;;;;10208495;28;20499;-72
2022/10/24 03:52:06;;;;;;;5.88;3.50;;;;;;;;;;10234910;28;20053;-72
2022/10/24 03:57:05;;;;;;;7.50;4.07;;;;;;;;;;10236800;28;20060;-70
2022/10/24 04:02:04;;;;;;;4.70;4.18;;;;;;;;;;10229773;28;20115;-71
2022/10/24 04:07:04;;;;;;;7.55;4.20;;;;;;;;;;10208180;28;20041;-70
2022/10/24 04:12:02;;;;;;;4.28;3.55;;;;;;;;;;10208804;28;20073;-72
2022/10/24 04:17:02;;;;;;;6.68;3.83;;;;;;;;;;10226041;28;20045;-72
2022/10/24 04:22:00;;;;;;;9.32;4.32;;;;;;;;;;10216518;28;20081;-70
2022/10/24 04:26:59;;;;;;;6.43;3.90;;;;;;;;;;10235572;28;20049;-70
2022/10/24 04:31:57;;;;;;;5.75;4.60;;;;;;;;;;10232887;28;20073;-72
2022/10/24 04:36:56;;;;;;;6.85;3.90;;;;;;;;;;10234187;28;20076;-72
2022/10/24 04:41:55;;;;;;;5.03;3.80;;;;;;;;;;10249337;28;20104;-72
2022/10/24 04:46:53;;;;;;;7.07;3.78;;;;;;;;;;10204358;28;20554;-70
2022/10/24 04:51:51;;;;;;;6.47;4.00;;;;;;;;;;10199810;28;20503;-71
2022/10/24 04:56:51;;;;;;;7.22;4.18;;;;;;;;;;10232005;28;20459;-70
2022/10/24 05:01:49;;;;;;;7.03;3.58;;;;;;;;;;10233339;28;20073;-70
2022/10/24 05:06:48;;;;;;;4.72;3.45;;;;;;;;;;10233897;28;20069;-70
2022/10/24 05:11:46;;;;;;;6.45;3.70;;;;;;;;;;10233973;28;20065;-69
2022/10/24 05:16:47;;;;;;;4.65;3.55;;;;;;;;;;10224864;28;20072;-70
2022/10/24 05:21:45;;;;;;;4.00;3.60;;;;;;;;;;10224255;28;20075;-70
2022/10/24 05:26:43;;;;;;;7.22;3.55;;;;;;;;;;10222640;28;20068;-71
2022/10/24 05:31:41;;;;;;;5.93;3.95;;;;;;;;;;10221421;28;20478;-70
2022/10/24 05:36:41;;;;;;;3.80;3.40;;;;;;;;;;10226928;28;20081;-70
2022/10/24 05:41:40;;;;;;;3.55;3.25;;;;;;;;;;10229337;28;20494;-70
2022/10/24 05:46:44;;;;;;;3.63;3.33;;;;;;;;;;10211484;28;20471;-71
2022/10/24 05:51:43;;;;;;;6.13;3.88;;;;;;;;;;10208401;28;20089;-71
2022/10/24 05:56:41;;;;;;;4.82;3.65;;;;;;;;;;10213364;28;20077;-72
2022/10/24 06:01:40;;;;;;;4.93;3.47;;;;;;;;;;10213826;28;20077;-71
2022/10/24 06:06:39;;;;;;;6.85;3.70;;;;;;;;;;10223619;28;20487;-70
2022/10/24 06:11:38;;;;;;;13.82;7.25;;;;;;;;;;10232731;28;20069;-71
2022/10/24 06:16:37;;;;;;;23.67;13.20;;;;;;;;;;10233033;28;20077;-71
2022/10/24 06:21:35;;;;;;;28.55;15.48;;;;;;;;;;10208372;28;20068;-71
2022/10/24 06:26:33;;;;;;;37.15;18.67;;;;;;;;;;10205851;28;20531;-71
2022/10/24 06:31:34;;;;;;;41.88;21.33;;;;;;;;;;10219525;28;20038;-71
2022/10/24 06:36:32;;;;;;;15.80;9.45;;;;;;;;;;10203512;28;20458;-71
2022/10/24 06:41:30;;;;;;;29.10;14.40;;;;;;;;;;10207720;28;20070;-70
2022/10/24 06:46:29;;;;;;;40.25;14.85;;;;;;;;;;10204584;28;20562;-70
2022/10/24 06:51:28;;;;;;;22.77;12.70;;;;;;;;;;10203638;28;20076;-70
2022/10/24 06:56:27;;;;;;;17.08;5.93;;;;;;;;;;10207605;28;20512;-70
2022/10/24 07:01:25;;;;;;;20.45;7.03;;;;;;;;;;10210902;28;20073;-70
2022/10/24 07:06:25;;;;;;;15.98;8.65;;;;;;;;;;10210636;28;20478;-71
2022/10/24 07:11:25;;;;;;;18.98;6.68;;;;;;;;;;10210642;28;20074;-71
2022/10/24 07:16:24;;;;;;;15.90;5.75;;;;;;;;;;10209846;28;20081;-71
2022/10/24 07:21:23;;;;;;;35.05;12.48;;;;;;;;;;10209823;28;20080;-71
2022/10/24 07:26:23;;;;;;;22.55;9.77;;;;;;;;;;10211050;28;20201;-71
2022/10/24 07:31:23;;;;;;;11.07;6.57;;;;;;;;;;10210343;28;20518;-72
2022/10/24 07:36:43;;;;;;;12.35;4.88;;;;;;;;;;10232435;28;20037;-72
2022/10/24 07:47:38;;;;;;;15.30;6.05;;;;;;;;;;10196505;28;20088;-71
2022/10/24 07:52:36;;;;;;;11.57;5.60;;;;;;;;;;10208278;28;20325;-71
2022/10/24 07:57:49;;;;;;;9.13;5.25;;;;;;;;;;10239158;28;20453;-71
2022/10/24 08:02:53;;;;;;;9.70;6.60;;;;;;;;;;10237032;28;20095;-72
2022/10/24 08:07:59;;;;;;;11.02;5.57;;;;;;;;;;10208304;28;20068;-71
2022/10/24 08:19:05;;;;;;;6.53;5.18;;;;;;;;;;10006514;29;20080;-71
2022/10/24 08:24:03;;;;;;;38.25;27.58;;;;;;;;;;10005562;29;20071;-71
2022/10/24 08:29:03;;;;;;;9.23;5.90;;;;;;;;;;10007586;29;20092;-71
2022/10/24 08:34:04;;;;;;;8.32;4.85;;;;;;;;;;10074771;28;20084;-71
2022/10/24 08:39:04;;;;;;;10.98;5.68;;;;;;;;;;10209888;28;20045;-71
2022/10/24 08:44:04;;;;;;;8.65;4.78;;;;;;;;;;10235742;28;20077;-72
2022/10/24 08:49:04;;;;;;;6.32;4.07;;;;;;;;;;10231051;28;20065;-71
2022/10/24 08:54:04;;;;;;;7.82;3.60;;;;;;;;;;10206139;28;20080;-71
2022/10/24 08:59:03;;;;;;;6.40;3.85;;;;;;;;;;10207173;28;20077;-71
2022/10/24 09:04:04;;;;;;;12.15;9.32;;;;;;;;;;10206640;28;20077;-70
2022/10/24 09:09:10;;;;;;;12.80;4.43;;;;;;;;;;10166727;28;20409;-70
2022/10/24 09:14:12;;;;;;;5.32;4.43;;;;;;;;;;10167078;28;20070;-72
2022/10/24 09:19:13;;;;;;;6.15;4.80;;;;;;;;;;10169266;28;20073;-71
2022/10/24 09:24:17;;;;;;;5.07;4.22;;;;;;;;;;10162426;28;20072;-71
2022/10/24 09:29:16;;;;;;;7.38;4.03;;;;;;;;;;10172719;28;20068;-72
2022/10/24 09:34:14;;;;;;;4.72;3.65;;;;;;;;;;10194544;28;20042;-71
2022/10/24 09:39:27;;;;;;;6.18;4.00;;;;;;;;;;10188457;28;20065;-71
2022/10/24 09:44:37;;;;;;;3.75;3.30;;;;;;;;;;10163519;28;20077;-72
2022/10/24 09:49:39;;;;;;;3.95;3.45;;;;;;;;;;10166304;28;20085;-70
2022/10/24 09:54:38;;;;;;;5.68;2.97;;;;;;;;;;10166241;28;20074;-70
2022/10/24 09:59:40;;;;;;;4.68;2.97;;;;;;;;;;10165794;28;20089;-72
2022/10/24 10:04:38;;;;;;;7.28;4.43;;;;;;;;;;10165191;28;20073;-71
2022/10/24 10:09:41;;;;;;;3.83;3.45;;;;;;;;;;10165455;28;20512;-72
2022/10/24 10:14:41;;;;;;;6.88;3.45;;;;;;;;;;10170112;28;20584;-71
2022/10/24 10:19:46;;;;;;;3.83;3.45;;;;;;;;;;10204422;28;20058;-72
2022/10/24 10:24:45;;;;;;;3.83;3.35;;;;;;;;;;10183225;28;20104;-72
2022/10/24 10:29:45;;;;;;;4.05;3.35;;;;;;;;;;10201341;28;20049;-71
2022/10/24 10:34:45;;;;;;;4.03;2.55;;;;;;;;;;10190363;28;20037;-71
2022/10/24 10:39:59;;;;;;;3.65;2.88;;;;;;;;;;10172786;28;20495;-70
2022/10/24 10:45:10;;;;;;;7.07;3.15;;;;;;;;;;10204056;28;20100;-71
2022/10/24 10:50:18;;;;;;;3.58;2.97;;;;;;;;;;10170759;28;20078;-71
2022/10/24 10:55:21;;;;;;;3.15;2.47;;;;;;;;;;10172278;28;20080;-71
2022/10/24 11:00:21;;;;;;;2.97;2.22;;;;;;;;;;10179069;28;20066;-71
2022/10/24 11:05:26;;;;;;;2.72;2.53;;;;;;;;;;10172396;28;20465;-71
2022/10/24 11:10:27;;;;;;;2.67;2.33;;;;;;;;;;10170889;28;20081;-71
2022/10/24 11:15:27;;;;;;;7.50;3.30;;;;;;;;;;10170248;28;20085;-71
2022/10/24 11:20:27;;;;;;;4.95;3.22;;;;;;;;;;10171008;28;20073;-72
2022/10/24 11:25:27;;;;;;;3.55;2.92;;;;;;;;;;10170312;28;20181;-72
2022/10/24 11:30:35;;;;;;;5.18;2.35;;;;;;;;;;10169298;28;20038;-72
2022/10/24 11:35:43;;;;;;;3.95;3.40;;;;;;;;;;10169681;28;20073;-72
2022/10/24 11:40:43;;;;;;;8.27;5.85;;;;;;;;;;10168105;28;20070;-71
2022/10/24 11:45:47;;;;;;;6.47;3.30;;;;;;;;;;10186084;28;20095;-72
2022/10/24 11:50:47;;;;;;;5.93;3.43;;;;;;;;;;10197044;28;20472;-71
2022/10/24 11:55:47;;;;;;;4.40;3.47;;;;;;;;;;10178493;28;20081;-72
2022/10/24 12:00:58;;;;;;;6.25;3.75;;;;;;;;;;10168517;28;20073;-72
2022/10/24 12:06:09;;;;;;;4.15;3.75;;;;;;;;;;10168203;28;20066;-72
2022/10/24 12:11:13;;;;;;;12.85;3.88;;;;;;;;;;10182346;28;20078;-72
2022/10/24 12:16:16;;;;;;;5.68;4.30;;;;;;;;;;10168526;28;20076;-72
2022/10/24 12:21:16;;;;;;;4.20;3.10;;;;;;;;;;10170492;28;20069;-72
2022/10/24 12:26:18;;;;;;;6.00;3.45;;;;;;;;;;10186774;28;20050;-72
2022/10/24 12:31:21;;;;;;;6.07;3.80;;;;;;;;;;10197108;28;20492;-71
2022/10/24 12:36:52;;;;;;;7.95;3.70;;;;;;;;;;10196016;28;20045;-72
2022/10/24 12:41:50;;;;;;;4.30;3.50;;;;;;;;;;10209310;28;20852;-72
2022/10/24 12:46:55;;;;;;;6.70;4.13;;;;;;;;;;10195486;28;20085;-72
2022/10/24 12:51:54;;;;;;;4.75;3.60;;;;;;;;;;10194905;28;20092;-72
2022/10/24 12:57:11;;;;;;;9.60;4.18;;;;;;;;;;10193655;28;20092;-72
2022/10/24 13:02:24;;;;;;;6.13;4.25;;;;;;;;;;10194584;28;20053;-71
2022/10/24 13:07:41;;;;;;;5.50;4.05;;;;;;;;;;10195222;28;20086;-71
2022/10/24 13:12:50;;;;;;;14.70;3.50;;;;;;;;;;10164403;28;20469;-72
2022/10/24 13:17:54;;;;;;;7.55;5.15;;;;;;;;;;10166006;28;20065;-71
2022/10/24 13:23:00;;;;;;;8.82;2.92;;;;;;;;;;10167763;28;20476;-71
2022/10/24 13:28:33;;;;;;;4.20;3.00;;;;;;;;;;10194732;28;20479;-71
2022/10/24 13:33:40;;;;;;;5.40;2.47;;;;;;;;;;10130959;28;20084;-71
2022/10/24 13:38:40;;;;;;;4.60;3.53;;;;;;;;;;10155528;28;20093;-71
2022/10/24 13:43:41;;;;;;;4.80;3.10;;;;;;;;;;10166457;28;20432;-70
2022/10/24 13:48:46;;;;;;;5.05;3.78;;;;;;;;;;10174998;28;20093;-72
2022/10/24 13:53:46;;;;;;;;;;;;;;;;;;10178464;28;20542;-72
2022/10/24 13:58:44;;;;;;;6.32;4.63;;;;;;;;;;10179308;28;19961;-72
2022/10/24 14:03:45;;;;;;;6.85;5.20;;;;;;;;;;10179549;28;20084;-73
2022/10/24 14:08:44;;;;;;;5.82;3.72;;;;;;;;;;10180860;28;20034;-72
2022/10/24 14:14:00;;;;;;;7.07;6.35;;;;;;;;;;10207455;28;20514;-72
2022/10/24 14:19:12;;;;;;;14.98;8.57;;;;;;;;;;10202439;28;20068;-72
2022/10/24 14:24:17;;;;;;;13.13;8.52;;;;;;;;;;10184692;28;20084;-73
2022/10/24 14:29:20;;;;;;;50.85;32.53;;;;;;;;;;10207094;28;20089;-72
2022/10/24 14:34:21;;;;;;;22.50;15.70;;;;;;;;;;10199908;28;20080;-73
2022/10/24 14:39:22;;;;;;;17.15;11.35;;;;;;;;;;10184150;28;20466;-71
2022/10/24 14:44:22;;;;;;;14.48;8.57;;;;;;;;;;10205441;28;20088;-72
2022/10/24 14:49:28;;;;;;;8.00;6.10;;;;;;;;;;10198014;28;20084;-74
2022/10/24 14:54:27;;;;;;;6.60;5.38;;;;;;;;;;10184954;28;20088;-72
2022/10/24 14:59:27;;;;;;;6.65;4.95;;;;;;;;;;10201162;28;20069;-72
2022/10/24 15:04:31;;;;;;;10.77;5.75;;;;;;;;;;10191845;28;20500;-72
2022/10/24 15:09:29;;;;;;;11.93;6.97;;;;;;;;;;10171723;28;20085;-72
2022/10/24 15:14:31;;;;;;;9.15;3.92;;;;;;;;;;10170039;28;20065;-73
2022/10/24 15:19:36;;;;;;;4.70;3.53;;;;;;;;;;10179073;28;20411;-73
2022/10/24 15:24:34;;;;;;;7.72;3.50;;;;;;;;;;10198395;28;20072;-73
2022/10/24 15:29:35;;;;;;;8.57;3.65;;;;;;;;;;10189125;28;20074;-73
2022/10/24 15:34:35;;;;;;;8.90;6.45;;;;;;;;;;10172127;28;20038;-72
2022/10/24 15:39:33;;;;;;;15.65;5.13;;;;;;;;;;10169957;28;20547;-72
2022/10/24 15:44:32;;;;;;;8.52;6.25;;;;;;;;;;10170262;28;20066;-72
2022/10/24 15:49:30;;;;;;;10.20;8.60;;;;;;;;;;10169045;28;20081;-72
2022/10/24 15:54:30;;;;;;;9.77;5.22;;;;;;;;;;10170829;28;20077;-73
2022/10/24 15:59:28;;;;;;;6.85;4.72;;;;;;;;;;10170741;28;20077;-72
2022/10/24 16:04:27;;;;;;;9.05;5.32;;;;;;;;;;10168752;28;20066;-73
2022/10/24 16:09:26;;;;;;;10.82;5.25;;;;;;;;;;10169051;28;20057;-72
2022/10/24 16:14:26;;;;;;;13.57;4.97;;;;;;;;;;10171837;28;20484;-74
2022/10/24 16:19:25;;;;;;;9.75;7.55;;;;;;;;;;10175789;28;20069;-73
2022/10/24 16:24:23;;;;;;;11.48;6.80;;;;;;;;;;10166153;28;20042;-72
2022/10/24 16:29:21;;;;;;;23.55;20.08;;;;;;;;;;10168250;28;20066;-72
2022/10/24 16:34:22;;;;;;;14.15;10.05;;;;;;;;;;10166177;28;20085;-73
2022/10/24 16:39:20;;;;;;;6.35;5.00;;;;;;;;;;10173820;28;20050;-72
2022/10/24 16:44:18;;;;;;;8.55;6.70;;;;;;;;;;10209056;28;20049;-71
2022/10/24 16:49:16;;;;;;;7.82;5.93;;;;;;;;;;10188511;28;20519;-71
2022/10/24 16:54:17;;;;;;;9.68;4.03;;;;;;;;;;10166882;28;20523;-72
2022/10/24 16:59:16;;;;;;;6.30;3.53;;;;;;;;;;10167171;28;20069;-71
2022/10/24 17:04:14;;;;;;;8.73;3.80;;;;;;;;;;10167389;28;20066;-70
2022/10/24 17:09:12;;;;;;;6.80;3.58;;;;;;;;;;10167176;28;20120;-71
2022/10/24 17:14:12;;;;;;;6.28;4.00;;;;;;;;;;10167164;28;20046;-72
2022/10/24 17:19:11;;;;;;;4.85;3.95;;;;;;;;;;10166999;28;20073;-73
2022/10/24 17:24:14;;;;;;;6.68;4.88;;;;;;;;;;10167253;28;20073;-71
2022/10/24 17:29:17;;;;;;;5.22;4.30;;;;;;;;;;10165630;28;20076;-71
2022/10/24 17:34:16;;;;;;;6.72;3.78;;;;;;;;;;10174163;28;20062;-71
2022/10/24 17:39:17;;;;;;;4.68;3.58;;;;;;;;;;10166219;28;20082;-70
2022/10/24 17:44:17;;;;;;;7.75;4.30;;;;;;;;;;10165208;28;20077;-71
2022/10/24 17:49:17;;;;;;;5.40;4.30;;;;;;;;;;10166198;28;20460;-71
2022/10/24 17:54:18;;;;;;;6.10;4.70;;;;;;;;;;10166240;28;20074;-71
2022/10/24 17:59:20;;;;;;;7.55;5.30;;;;;;;;;;10165357;28;20185;-71
2022/10/24 18:04:18;;;;;;;6.95;4.47;;;;;;;;;;10165231;28;20084;-72
2022/10/24 18:09:17;;;;;;;3.90;3.50;;;;;;;;;;10165751;28;20073;-71
2022/10/24 18:14:15;;;;;;;3.97;3.40;;;;;;;;;;10166040;28;20062;-71
2022/10/24 18:19:16;;;;;;;9.30;4.00;;;;;;;;;;10164285;28;20073;-71
2022/10/24 18:24:15;;;;;;;8.45;4.82;;;;;;;;;;10165576;28;20066;-70
2022/10/24 18:29:13;;;;;;;5.75;4.40;;;;;;;;;;10165330;28;20073;-70
2022/10/24 18:34:11;;;;;;;6.93;4.60;;;;;;;;;;10166029;28;20041;-71
2022/10/24 18:39:12;;;;;;;4.97;4.30;;;;;;;;;;10172588;28;20077;-72
2022/10/24 18:44:21;;;;;;;8.20;3.65;;;;;;;;;;10172475;28;20511;-71
2022/10/24 18:49:19;;;;;;;7.05;3.63;;;;;;;;;;10170466;28;20085;-71
2022/10/24 18:54:20;;;;;;;3.22;2.92;;;;;;;;;;10171544;28;20069;-71
2022/10/24 18:59:19;;;;;;;10.23;3.17;;;;;;;;;;10171896;28;20082;-71
2022/10/24 19:04:19;;;;;;;5.35;2.72;;;;;;;;;;10186291;28;20078;-71
2022/10/24 19:09:19;;;;;;;4.03;2.65;;;;;;;;;;10199261;28;20077;-71
2022/10/24 19:14:18;;;;;;;4.70;3.33;;;;;;;;;;10199795;28;20076;-70
2022/10/24 19:19:18;;;;;;;5.10;3.70;;;;;;;;;;10199926;28;20062;-71
2022/10/24 19:24:17;;;;;;;3.95;2.72;;;;;;;;;;10191541;28;20058;-71
2022/10/24 19:29:16;;;;;;;5.03;2.92;;;;;;;;;;10171466;28;20147;-71
2022/10/24 19:34:14;;;;;;;5.22;3.08;;;;;;;;;;10171004;28;20100;-70
2022/10/24 19:39:13;;;;;;;3.58;2.42;;;;;;;;;;10169483;28;20061;-71
2022/10/24 19:44:11;;;;;;;7.68;3.10;;;;;;;;;;10170275;28;20073;-71
2022/10/24 19:49:10;;;;;;;6.63;3.33;;;;;;;;;;10170388;28;20108;-71
2022/10/24 19:54:09;;;;;;;5.20;2.97;;;;;;;;;;10168238;28;20065;-70
2022/10/24 19:59:10;;;;;;;8.18;3.22;;;;;;;;;;10185691;28;20088;-68
2022/10/24 20:04:10;;;;;;;5.10;3.30;;;;;;;;;;10186935;28;20483;-70
2022/10/24 20:09:10;;;;;;;3.92;3.00;;;;;;;;;;10189752;28;20510;-70
2022/10/24 20:14:08;;;;;;;6.47;3.08;;;;;;;;;;10190020;28;20073;-70
2022/10/24 20:19:06;;;;;;;4.65;2.65;;;;;;;;;;10188271;28;20084;-70
2022/10/24 20:24:07;;;;;;;2.47;2.20;;;;;;;;;;10182329;28;20073;-70
2022/10/24 20:29:05;;;;;;;6.07;1.98;;;;;;;;;;10196404;28;20070;-71
2022/10/24 20:34:08;;;;;;;4.95;2.65;;;;;;;;;;10190211;28;20071;-71
2022/10/24 20:39:08;;;;;;;2.97;2.70;;;;;;;;;;10189648;28;20083;-70
2022/10/24 20:44:06;;;;;;;3.45;2.70;;;;;;;;;;10160528;28;20078;-71
2022/10/24 20:49:05;;;;;;;8.38;2.72;;;;;;;;;;10187511;28;20469;-71
2022/10/24 20:54:06;;;;;;;5.65;2.20;;;;;;;;;;10167249;28;20559;-71
2022/10/24 20:59:06;;;;;;;5.05;2.50;;;;;;;;;;10166992;28;20076;-71
2022/10/24 21:04:04;;;;;;;5.75;3.08;;;;;;;;;;10167730;28;20070;-71
2022/10/24 21:09:04;;;;;;;7.93;2.55;;;;;;;;;;10172033;28;20088;-71
2022/10/24 21:14:03;;;;;;;6.88;2.97;;;;;;;;;;10168680;28;20078;-70
2022/10/24 21:19:03;;;;;;;3.38;2.35;;;;;;;;;;10166830;28;20042;-70
2022/10/24 21:24:02;;;;;;;6.97;3.05;;;;;;;;;;10167110;28;20069;-71
2022/10/24 21:29:03;;;;;;;6.32;2.50;;;;;;;;;;10166670;28;20086;-70
2022/10/24 21:34:23;;;;;;;3.55;2.53;;;;;;;;;;10180510;28;20055;-70
2022/10/24 21:39:25;;;;;;;9.93;2.70;;;;;;;;;;10187284;28;20097;-71
2022/10/24 21:44:24;;;;;;;5.22;2.60;;;;;;;;;;10178258;28;20077;-72
2022/10/24 21:49:24;;;;;;;6.97;2.63;;;;;;;;;;10185098;28;20089;-71
2022/10/24 21:54:23;;;;;;;5.63;2.58;;;;;;;;;;10164369;28;20046;-70
2022/10/24 21:59:21;;;;;;;6.18;2.90;;;;;;;;;;10164550;28;20049;-71
2022/10/24 22:04:20;;;;;;;3.65;2.47;;;;;;;;;;10165696;28;20074;-70
2022/10/24 22:09:22;;;;;;;6.07;2.70;;;;;;;;;;10169568;28;20070;-71
2022/10/24 22:14:20;;;;;;;5.55;2.88;;;;;;;;;;10173911;28;20093;-71
2022/10/24 22:19:18;;;;;;;3.85;2.70;;;;;;;;;;10173393;28;20577;-70
2022/10/24 22:24:18;;;;;;;5.90;3.17;;;;;;;;;;10173924;28;20062;-71
2022/10/24 22:29:19;;;;;;;4.43;2.58;;;;;;;;;;10169636;28;20074;-71
2022/10/24 22:34:22;;;;;;;3.65;2.63;;;;;;;;;;10169522;28;20100;-70
2022/10/24 22:39:24;;;;;;;3.13;2.65;;;;;;;;;;10171072;28;20069;-71
2022/10/24 22:44:26;;;;;;;5.55;2.78;;;;;;;;;;10172230;28;20533;-71
2022/10/24 22:49:29;;;;;;;5.68;3.00;;;;;;;;;;10179178;28;20081;-71
2022/10/24 22:54:29;;;;;;;4.43;3.15;;;;;;;;;;10172150;28;20521;-70
2022/10/24 22:59:29;;;;;;;3.45;2.70;;;;;;;;;;10170993;28;20070;-70
2022/10/24 23:04:32;;;;;;;6.85;2.53;;;;;;;;;;10202385;28;20074;-70
2022/10/24 23:09:30;;;;;;;3.20;2.85;;;;;;;;;;10174693;28;20080;-70
2022/10/24 23:14:30;;;;;;;4.65;3.20;;;;;;;;;;10188717;28;20058;-71
2022/10/24 23:19:30;;;;;;;8.52;2.95;;;;;;;;;;10188472;28;20476;-71
2022/10/24 23:24:29;;;;;;;5.80;4.00;;;;;;;;;;10189040;28;20097;-71
2022/10/24 23:29:29;;;;;;;7.60;4.18;;;;;;;;;;10188011;28;20070;-71
2022/10/24 23:34:29;;;;;;;4.13;3.40;;;;;;;;;;10170134;28;20070;-71
2022/10/24 23:39:30;;;;;;;5.35;3.97;;;;;;;;;;10170904;28;20046;-71
2022/10/24 23:44:28;;;;;;;7.38;5.28;;;;;;;;;;10172924;28;20081;-71
2022/10/24 23:49:30;;;;;;;10.38;5.22;;;;;;;;;;10188400;28;20092;-71
2022/10/24 23:54:30;;;;;;;8.27;5.82;;;;;;;;;;10188884;28;20495;-70
2022/10/24 23:59:29;;;;;;;8.75;5.65;;;;;;;;;;10185633;28;20065;-70
